Time;durP1;ratioP1;P1;durP2;ratioP2;P2;SDS_P1;SDS_P2;PMS_P1;PMS_P2;Temp;Humidity;BMP_temperature;BMP_pressure;BME280_temperature;BME280_humidity;BME280_pressure;Samples;Min_cycle;Max_cycle;Signal;HPM_P1;HPM_P2
2021/01/20 00:00:26;;;;;;;0.90;0.83;;;;;;;6.36;57.01;95230.63;5031018;28;20301;-77
2021/01/20 00:02:52;;;;;;;1.07;0.97;;;;;;;6.34;57.65;95227.47;5031051;28;20194;-77
2021/01/20 00:05:18;;;;;;;1.23;1.13;;;;;;;6.34;58.23;95224.09;5030854;28;20202;-77
2021/01/20 00:07:44;;;;;;;1.10;1.00;;;;;;;6.34;58.32;95219.00;5030923;28;20202;-76
2021/01/20 00:10:12;;;;;;;1.10;1.00;;;;;;;6.27;59.08;95215.47;5030899;28;20360;-77
2021/01/20 00:12:38;;;;;;;0.90;0.90;;;;;;;6.25;59.40;95215.63;5030787;28;20225;-77
2021/01/20 00:15:04;;;;;;;1.00;0.90;;;;;;;6.27;59.69;95212.91;5030596;28;20322;-77
2021/01/20 00:17:30;;;;;;;1.00;0.97;;;;;;;6.27;59.57;95210.34;5030731;28;20225;-77
2021/01/20 00:19:56;;;;;;;2.30;0.93;;;;;;;6.28;59.90;95210.19;5030632;28;20261;-77
2021/01/20 00:22:28;;;;;;;0.87;0.83;;;;;;;6.27;59.73;95203.47;5030759;28;20653;-76
2021/01/20 00:24:55;;;;;;;2.30;1.10;;;;;;;6.29;59.72;95205.88;5030506;28;20194;-77
2021/01/20 00:27:21;;;;;;;2.60;1.00;;;;;;;6.25;59.73;95200.28;5030070;28;20300;-77
2021/01/20 00:29:47;;;;;;;1.40;0.90;;;;;;;6.29;60.21;95198.22;5030471;28;20600;-77
2021/01/20 00:32:13;;;;;;;1.40;1.00;;;;;;;6.22;60.04;95195.47;5030552;28;20199;-77
2021/01/20 00:34:39;;;;;;;1.00;0.90;;;;;;;6.18;60.20;95194.19;5030602;28;20249;-77
2021/01/20 00:37:05;;;;;;;1.13;0.90;;;;;;;6.20;60.01;95192.28;5030538;28;20698;-77
2021/01/20 00:39:31;;;;;;;0.90;0.90;;;;;;;6.19;59.75;95190.69;5030342;28;20262;-77
2021/01/20 00:41:58;;;;;;;1.10;1.00;;;;;;;6.08;60.22;95184.16;5029960;28;20202;-76
2021/01/20 00:44:24;;;;;;;0.80;0.80;;;;;;;6.10;59.94;95186.53;5029827;28;20229;-77
2021/01/20 00:46:50;;;;;;;1.10;0.90;;;;;;;6.07;60.06;95181.75;5030311;28;20237;-76
2021/01/20 00:49:16;;;;;;;0.80;0.80;;;;;;;6.08;60.09;95178.22;5030096;28;20201;-76
2021/01/20 00:51:42;;;;;;;1.40;0.93;;;;;;;6.12;59.34;95185.44;5030220;28;20213;-77
2021/01/20 00:54:08;;;;;;;0.87;0.87;;;;;;;6.12;59.21;95192.31;5029550;28;20284;-77
2021/01/20 00:56:34;;;;;;;1.87;1.00;;;;;;;6.14;59.18;95185.28;5029920;28;20206;-76
2021/01/20 00:59:01;;;;;;;1.37;0.97;;;;;;;6.15;58.79;95192.78;5029722;28;20255;-76
2021/01/20 01:01:28;;;;;;;0.90;0.90;;;;;;;6.15;58.46;95184.31;5030550;28;20214;-76
2021/01/20 01:03:54;;;;;;;1.30;0.80;;;;;;;6.13;57.76;95192.13;5030395;28;20198;-77
2021/01/20 01:06:20;;;;;;;0.90;0.90;;;;;;;6.14;57.83;95191.19;5030766;28;20566;-76
2021/01/20 01:08:46;;;;;;;0.90;0.70;;;;;;;6.19;57.17;95195.81;5030197;28;20260;-76
2021/01/20 01:11:12;;;;;;;1.03;0.93;;;;;;;6.26;57.70;95201.88;5029994;28;20749;-75
2021/01/20 01:13:38;;;;;;;0.80;0.80;;;;;;;6.30;57.08;95210.03;5029718;28;20271;-77
2021/01/20 01:16:06;;;;;;;0.83;0.83;;;;;;;6.33;56.66;95209.72;5029788;28;20874;-76
2021/01/20 01:18:31;;;;;;;0.80;0.80;;;;;;;6.32;56.75;95216.59;5030493;28;20688;-77
2021/01/20 01:20:57;;;;;;;1.00;0.90;;;;;;;6.36;56.64;95209.38;5029633;28;20233;-76
2021/01/20 01:23:23;;;;;;;0.97;0.87;;;;;;;6.34;55.61;95217.25;5029701;28;20199;-76
2021/01/20 01:25:52;;;;;;;0.80;0.80;;;;;;;6.36;56.18;95215.28;5029580;28;20206;-76
2021/01/20 01:28:18;;;;;;;0.60;0.60;;;;;;;6.37;55.88;95219.44;5029685;28;20195;-77
2021/01/20 01:30:44;;;;;;;0.83;0.80;;;;;;;6.35;55.08;95218.81;5029884;28;20240;-77
2021/01/20 01:33:11;;;;;;;0.90;0.90;;;;;;;6.33;54.16;95219.94;5029724;28;20199;-77
2021/01/20 01:35:37;;;;;;;0.70;0.70;;;;;;;6.36;54.53;95222.97;5028916;28;20237;-76
2021/01/20 01:38:03;;;;;;;0.77;0.70;;;;;;;6.38;54.04;95220.25;5029875;28;20206;-76
2021/01/20 01:40:29;;;;;;;0.70;0.70;;;;;;;6.37;54.29;95224.56;5029700;28;20210;-77
2021/01/20 01:42:57;;;;;;;0.67;0.67;;;;;;;6.39;54.48;95232.06;5029608;28;20199;-77
2021/01/20 01:45:24;;;;;;;0.70;0.70;;;;;;;6.38;54.04;95223.59;5029270;28;20248;-77
2021/01/20 01:47:50;;;;;;;0.80;0.80;;;;;;;6.38;54.76;95222.81;5029954;28;20213;-77
2021/01/20 01:50:17;;;;;;;0.60;0.60;;;;;;;6.33;53.69;95218.19;5029408;28;20214;-77
2021/01/20 01:52:43;;;;;;;0.67;0.67;;;;;;;6.31;53.95;95211.63;5029858;28;20252;-76
2021/01/20 01:55:11;;;;;;;0.73;0.73;;;;;;;6.26;52.97;95208.75;5029211;28;20360;-76
2021/01/20 01:57:38;;;;;;;0.70;0.70;;;;;;;6.23;53.12;95210.66;5029830;28;20620;-76
2021/01/20 02:00:06;;;;;;;0.80;0.80;;;;;;;6.27;53.45;95200.94;5030929;28;20226;-76
2021/01/20 02:02:33;;;;;;;0.87;0.87;;;;;;;6.29;53.14;95206.69;5033117;28;20198;-76
2021/01/20 02:04:59;;;;;;;0.73;0.73;;;;;;;6.29;52.48;95205.88;5033001;28;20202;-76
2021/01/20 02:07:28;;;;;;;0.63;0.63;;;;;;;6.22;52.68;95205.72;5013343;28;20674;-75
2021/01/20 02:09:54;;;;;;;0.80;0.80;;;;;;;6.21;52.56;95211.78;5013058;28;20254;-75
2021/01/20 02:12:40;;;;;;;1.07;0.80;;;;;;;6.21;52.49;95206.66;5032335;28;20248;-77
2021/01/20 02:15:15;;;;;;;1.37;0.80;;;;;;;6.19;53.14;95211.94;5032554;28;20218;-76
2021/01/20 02:17:44;;;;;;;1.00;0.83;;;;;;;6.20;53.61;95213.53;5013229;28;20668;-76
2021/01/20 02:20:33;;;;;;;0.70;0.70;;;;;;;6.14;52.84;95205.72;5022557;28;20316;-76
2021/01/20 02:23:04;;;;;;;0.97;0.90;;;;;;;6.04;53.75;95207.63;5033206;28;20206;-76
2021/01/20 02:25:57;;;;;;;0.97;0.80;;;;;;;6.01;54.02;95200.25;5032324;28;20199;-76
2021/01/20 02:28:27;;;;;;;0.77;0.77;;;;;;;5.96;54.10;95200.75;5012956;28;20294;-76
2021/01/20 02:30:56;;;;;;;1.13;0.77;;;;;;;5.92;54.40;95202.00;5031200;28;20218;-77
2021/01/20 02:33:24;;;;;;;0.70;0.70;;;;;;;5.86;54.50;95195.75;5032654;28;20203;-76
2021/01/20 02:35:53;;;;;;;0.80;0.80;;;;;;;5.83;55.01;95196.03;5032222;28;20225;-77
2021/01/20 02:38:21;;;;;;;1.03;0.77;;;;;;;5.81;55.01;95199.72;5032432;28;20203;-76
2021/01/20 02:40:47;;;;;;;0.70;0.70;;;;;;;5.84;55.10;95192.53;5032509;28;20222;-77
2021/01/20 02:43:13;;;;;;;0.70;0.70;;;;;;;5.88;54.88;95195.59;5031966;28;20585;-76
2021/01/20 02:45:40;;;;;;;0.70;0.70;;;;;;;5.90;54.53;95193.72;5032209;28;20202;-77
2021/01/20 02:48:07;;;;;;;1.63;0.80;;;;;;;5.92;54.57;95199.47;5032227;28;20258;-75
2021/01/20 02:50:32;;;;;;;0.70;0.70;;;;;;;5.93;54.15;95188.28;5032390;28;20601;-77
2021/01/20 02:53:02;;;;;;;0.87;0.80;;;;;;;5.97;54.49;95186.19;5031679;28;20194;-77
2021/01/20 02:55:30;;;;;;;1.70;0.70;;;;;;;6.08;54.37;95193.56;5031681;28;20222;-76
2021/01/20 02:58:00;;;;;;;0.93;0.80;;;;;;;6.06;54.23;95185.25;5032012;28;20674;-76
2021/01/20 03:00:27;;;;;;;0.73;0.73;;;;;;;6.12;54.30;95192.31;5032656;28;20601;-76
2021/01/20 03:02:53;;;;;;;1.47;0.70;;;;;;;6.11;54.10;95190.69;5032114;28;20202;-76
2021/01/20 03:05:21;;;;;;;0.60;0.60;;;;;;;6.09;53.63;95187.50;5031349;28;20206;-77
2021/01/20 03:07:47;;;;;;;0.70;0.70;;;;;;;6.12;53.99;95189.75;5032375;28;20209;-77
2021/01/20 03:10:14;;;;;;;0.73;0.73;;;;;;;6.15;54.41;95190.22;5031943;28;20225;-76
2021/01/20 03:12:43;;;;;;;1.20;0.70;;;;;;;6.16;53.88;95185.88;5030560;28;20313;-77
2021/01/20 03:15:13;;;;;;;0.60;0.60;;;;;;;6.19;54.08;95180.47;5031542;28;20225;-77
2021/01/20 03:17:39;;;;;;;0.70;0.70;;;;;;;6.18;54.29;95183.97;5031907;28;20294;-76
2021/01/20 03:20:06;;;;;;;0.80;0.80;;;;;;;6.20;54.27;95171.84;5031409;28;20233;-77
2021/01/20 03:22:32;;;;;;;1.70;0.60;;;;;;;6.21;54.70;95174.25;5031286;28;20206;-76
2021/01/20 03:24:58;;;;;;;0.80;0.80;;;;;;;6.20;54.64;95177.75;5031411;28;20194;-76
2021/01/20 03:27:24;;;;;;;0.90;0.70;;;;;;;6.20;54.47;95164.97;5031966;28;20252;-77
2021/01/20 03:29:50;;;;;;;1.33;0.80;;;;;;;6.16;54.90;95155.22;5031514;28;20217;-77
2021/01/20 03:32:16;;;;;;;0.80;0.80;;;;;;;6.12;54.97;95164.19;5031716;28;20214;-77
2021/01/20 03:34:42;;;;;;;0.80;0.80;;;;;;;6.12;54.44;95161.63;5030903;28;20252;-76
2021/01/20 03:37:08;;;;;;;0.80;0.80;;;;;;;6.09;54.69;95167.06;5030806;28;20581;-76
2021/01/20 03:39:34;;;;;;;0.60;0.60;;;;;;;6.09;54.85;95165.31;5031448;28;20222;-76
2021/01/20 03:42:00;;;;;;;0.70;0.70;;;;;;;6.09;54.62;95164.50;5031115;28;20209;-76
2021/01/20 03:44:26;;;;;;;0.70;0.70;;;;;;;6.00;54.82;95161.13;5031340;28;20252;-77
2021/01/20 03:46:52;;;;;;;1.23;0.80;;;;;;;6.01;54.74;95157.63;5031276;28;20272;-77
2021/01/20 03:49:18;;;;;;;0.70;0.70;;;;;;;6.02;55.19;95154.09;5031250;28;20209;-76
2021/01/20 03:51:45;;;;;;;0.80;0.80;;;;;;;6.00;55.01;95161.13;5030912;28;20202;-76
2021/01/20 03:54:11;;;;;;;0.70;0.70;;;;;;;6.01;54.89;95146.59;5030684;28;20202;-76
2021/01/20 03:56:38;;;;;;;0.60;0.60;;;;;;;5.97;54.81;95142.75;5031055;28;20617;-76
2021/01/20 03:59:04;;;;;;;0.63;0.63;;;;;;;5.97;54.98;95140.19;5031376;28;20213;-76
2021/01/20 04:01:30;;;;;;;1.17;0.80;;;;;;;5.97;54.96;95142.75;5030519;28;20218;-76
2021/01/20 04:03:56;;;;;;;0.73;0.70;;;;;;;5.95;55.09;95144.69;5030783;28;20617;-78
2021/01/20 04:06:22;;;;;;;0.80;0.80;;;;;;;5.92;55.14;95138.16;5030607;28;20190;-75
2021/01/20 04:08:49;;;;;;;1.23;1.00;;;;;;;5.91;55.47;95143.41;5031138;28;20210;-76
2021/01/20 04:11:15;;;;;;;0.77;0.77;;;;;;;5.82;55.18;95140.00;5030663;28;20229;-76
2021/01/20 04:13:42;;;;;;;1.57;0.90;;;;;;;5.78;55.56;95141.25;5031196;28;20206;-76
2021/01/20 04:16:08;;;;;;;0.70;0.70;;;;;;;5.74;55.57;95138.25;5029928;28;20214;-77
2021/01/20 04:18:34;;;;;;;1.03;0.90;;;;;;;5.73;56.00;95144.31;5030780;28;20713;-76
2021/01/20 04:21:00;;;;;;;1.73;0.90;;;;;;;5.71;56.22;95138.56;5030099;28;20735;-76
2021/01/20 04:23:26;;;;;;;0.70;0.70;;;;;;;5.68;56.30;95127.88;5030310;28;20678;-77
2021/01/20 04:25:52;;;;;;;0.93;0.83;;;;;;;5.66;56.44;95132.31;5030295;28;20194;-76
2021/01/20 04:28:18;;;;;;;0.80;0.80;;;;;;;5.60;56.68;95127.84;5030683;28;20225;-77
2021/01/20 04:30:45;;;;;;;0.70;0.70;;;;;;;5.56;56.83;95137.59;5030160;28;20222;-76
2021/01/20 04:33:10;;;;;;;0.90;0.90;;;;;;;5.53;56.71;95130.25;5030616;28;20206;-76
2021/01/20 04:35:36;;;;;;;0.80;0.80;;;;;;;5.50;56.72;95131.34;5029868;28;20229;-76
2021/01/20 04:38:03;;;;;;;0.70;0.70;;;;;;;5.53;56.81;95131.03;5030567;28;20194;-77
2021/01/20 04:40:29;;;;;;;0.90;0.90;;;;;;;5.53;56.59;95138.69;5030258;28;20206;-76
2021/01/20 04:42:55;;;;;;;0.80;0.80;;;;;;;5.51;57.03;95127.84;5030157;28;20682;-76
2021/01/20 04:45:22;;;;;;;0.90;0.90;;;;;;;5.51;56.82;95134.69;5030141;28;20218;-76
2021/01/20 04:47:51;;;;;;;0.90;0.90;;;;;;;5.52;57.04;95136.28;5030127;28;20205;-77
2021/01/20 04:50:21;;;;;;;1.13;0.90;;;;;;;5.48;57.33;95133.25;5030213;28;20587;-77
2021/01/20 04:52:49;;;;;;;0.73;0.73;;;;;;;5.50;57.42;95135.66;5030001;28;20612;-77
2021/01/20 04:55:16;;;;;;;0.90;0.90;;;;;;;5.48;57.00;95119.69;5030036;28;20221;-76
2021/01/20 04:57:43;;;;;;;1.50;1.10;;;;;;;5.49;57.51;95121.28;5030079;28;20225;-77
2021/01/20 05:00:10;;;;;;;0.97;0.70;;;;;;;5.49;57.20;95126.38;5030394;28;20229;-76
2021/01/20 05:02:36;;;;;;;1.13;1.00;;;;;;;5.45;57.49;95125.09;5030032;28;20194;-76
2021/01/20 05:05:04;;;;;;;0.90;0.90;;;;;;;5.49;57.63;95119.53;5029110;28;20193;-76
2021/01/20 05:07:30;;;;;;;1.30;1.20;;;;;;;5.50;57.05;95121.13;5030145;28;20209;-77
2021/01/20 05:09:56;;;;;;;0.90;0.90;;;;;;;5.46;57.46;95119.84;5029832;28;20210;-76
2021/01/20 05:12:39;;;;;;;1.07;0.97;;;;;;;5.46;57.39;95124.16;5029818;28;20689;-76
2021/01/20 05:15:07;;;;;;;1.10;1.00;;;;;;;5.49;56.93;95121.28;5029409;28;20225;-76
2021/01/20 05:17:33;;;;;;;0.90;0.90;;;;;;;5.49;56.89;95118.72;5029857;28;20198;-76
2021/01/20 05:19:59;;;;;;;0.90;0.90;;;;;;;5.52;56.97;95124.34;5029716;28;20226;-76
2021/01/20 05:22:26;;;;;;;1.07;0.97;;;;;;;5.57;56.72;95123.06;5029869;28;20299;-77
2021/01/20 05:25:01;;;;;;;0.90;0.90;;;;;;;5.55;57.09;95118.13;5029781;28;20260;-77
2021/01/20 05:27:29;;;;;;;0.83;0.83;;;;;;;5.60;57.22;95120.16;5029987;28;20559;-77
2021/01/20 05:29:59;;;;;;;0.80;0.80;;;;;;;5.61;57.26;95120.03;5030129;28;20701;-76
2021/01/20 05:32:25;;;;;;;1.10;1.00;;;;;;;5.62;57.02;95113.16;5029554;28;20550;-76
2021/01/20 05:34:58;;;;;;;0.90;0.90;;;;;;;5.60;57.39;95120.16;5030636;28;20250;-77
2021/01/20 05:37:24;;;;;;;3.80;0.93;;;;;;;5.55;57.35;95113.81;5033453;28;20284;-77
2021/01/20 05:39:51;;;;;;;1.13;1.00;;;;;;;5.59;57.05;95116.81;5033419;28;20234;-77
2021/01/20 05:42:17;;;;;;;1.90;0.80;;;;;;;5.60;56.85;95112.50;5033561;28;20194;-76
2021/01/20 05:45:01;;;;;;;1.70;0.70;;;;;;;5.57;57.17;95111.09;5033780;28;20221;-77
2021/01/20 05:47:27;;;;;;;0.77;0.77;;;;;;;5.58;57.18;95102.44;5028911;28;20293;-76
2021/01/20 05:50:04;;;;;;;0.90;0.90;;;;;;;5.62;56.70;95108.06;5028180;28;20218;-76
2021/01/20 05:52:30;;;;;;;1.00;0.73;;;;;;;5.61;56.97;95106.44;5024155;28;20190;-75
2021/01/20 05:54:57;;;;;;;1.20;0.90;;;;;;;5.62;57.17;95103.75;5029260;28;20854;-76
2021/01/20 05:57:28;;;;;;;1.00;1.00;;;;;;;5.61;56.74;95109.81;5029315;28;20293;-76
2021/01/20 05:59:54;;;;;;;0.90;0.90;;;;;;;5.54;57.04;95104.53;5030517;28;20300;-77
2021/01/20 06:02:20;;;;;;;0.90;0.70;;;;;;;5.51;56.84;95112.50;5031919;28;20203;-76
2021/01/20 06:04:47;;;;;;;0.80;0.80;;;;;;;5.40;57.95;95107.69;5031834;28;20198;-76
2021/01/20 06:07:14;;;;;;;1.30;1.20;;;;;;;5.41;57.37;95111.03;5032481;28;20208;-76
2021/01/20 06:09:41;;;;;;;0.90;0.90;;;;;;;5.41;57.78;95109.28;5031840;28;20229;-76
2021/01/20 06:12:10;;;;;;;1.10;1.00;;;;;;;5.33;58.00;95109.28;5032759;28;20195;-77
2021/01/20 06:14:37;;;;;;;1.30;1.10;;;;;;;5.35;58.01;95106.59;5016372;28;20673;-76
2021/01/20 06:17:10;;;;;;;0.80;0.80;;;;;;;5.31;57.97;95108.66;5032280;28;20666;-76
2021/01/20 06:19:38;;;;;;;2.80;2.13;;;;;;;5.31;58.44;95107.84;5026149;28;20227;-76
2021/01/20 06:22:04;;;;;;;2.40;2.17;;;;;;;5.27;58.46;95101.44;5031106;28;20293;-76
2021/01/20 06:24:38;;;;;;;1.23;1.10;;;;;;;5.18;58.74;95104.00;5031682;28;20748;-76
2021/01/20 06:27:12;;;;;;;1.30;1.20;;;;;;;5.11;59.28;95104.75;5032471;28;20209;-76
2021/01/20 06:29:42;;;;;;;1.93;1.27;;;;;;;5.13;59.26;95108.75;5032530;28;20248;-77
2021/01/20 06:32:09;;;;;;;1.63;1.20;;;;;;;5.14;59.84;95112.09;5028723;28;20190;-77
2021/01/20 06:34:35;;;;;;;1.40;1.30;;;;;;;5.13;59.83;95100.28;5030856;28;20309;-77
2021/01/20 06:37:01;;;;;;;1.23;1.10;;;;;;;5.10;60.02;95096.28;5027488;28;20241;-76
2021/01/20 06:39:34;;;;;;;1.30;1.17;;;;;;;5.15;59.65;95106.84;5031542;28;20697;-76
2021/01/20 06:42:01;;;;;;;1.00;1.00;;;;;;;5.08;60.39;95098.19;5032037;28;20210;-77
2021/01/20 06:44:29;;;;;;;2.07;1.30;;;;;;;5.07;61.19;95096.59;5031417;28;20337;-76
2021/01/20 06:46:59;;;;;;;1.60;1.23;;;;;;;5.02;61.01;95095.47;5031334;28;20236;-76
2021/01/20 06:49:26;;;;;;;1.20;1.10;;;;;;;5.01;60.64;95099.75;5021108;28;20341;-77
2021/01/20 06:52:06;;;;;;;1.73;1.40;;;;;;;5.05;61.71;95097.72;5025307;28;20194;-77
2021/01/20 06:54:37;;;;;;;3.37;2.20;;;;;;;5.06;61.17;95096.75;5030984;28;20226;-76
2021/01/20 06:57:25;;;;;;;8.40;3.93;;;;;;;5.14;61.12;95107.00;5031788;28;20199;-77
2021/01/20 07:00:11;;;;;;;1.93;1.70;;;;;;;5.14;60.44;95109.56;5030504;28;20218;-76
2021/01/20 07:02:56;;;;;;;1.53;1.40;;;;;;;5.09;60.64;95102.34;5016428;28;20194;-77
2021/01/20 07:05:31;;;;;;;2.23;1.23;;;;;;;5.13;60.97;95105.41;5031399;28;20203;-76
2021/01/20 07:07:57;;;;;;;2.60;1.13;;;;;;;5.17;60.46;95104.94;5031457;28;20198;-76
2021/01/20 07:10:24;;;;;;;1.90;1.07;;;;;;;5.18;60.29;95104.00;5030866;28;20651;-77
2021/01/20 07:13:17;;;;;;;1.57;1.40;;;;;;;5.20;60.50;95101.25;5031441;28;20721;-76
2021/01/20 07:15:53;;;;;;;1.70;1.50;;;;;;;5.22;60.50;95097.59;5031067;28;20225;-76
2021/01/20 07:18:22;;;;;;;1.47;1.20;;;;;;;5.20;59.90;95099.50;5030363;28;20714;-77
2021/01/20 07:20:48;;;;;;;1.40;1.17;;;;;;;5.15;60.00;95100.94;5029134;28;20321;-76
2021/01/20 07:23:14;;;;;;;4.00;1.40;;;;;;;5.21;60.09;95101.09;5030761;28;20194;-77
2021/01/20 07:25:40;;;;;;;2.63;1.40;;;;;;;5.26;59.99;95095.53;5031312;28;20202;-76
2021/01/20 07:28:07;;;;;;;1.60;1.20;;;;;;;5.27;59.71;95094.59;5030005;28;20198;-77
2021/01/20 07:30:33;;;;;;;2.00;1.30;;;;;;;5.45;68.54;95091.91;5030125;28;20210;-76
2021/01/20 07:33:00;;;;;;;1.83;1.53;;;;;;;5.83;73.96;95085.41;5031361;28;20194;-76
2021/01/20 07:35:29;;;;;;;17.23;13.17;;;;;;;6.15;67.78;95085.44;5030908;28;20218;-77
2021/01/20 07:38:01;;;;;;;2.53;2.00;;;;;;;6.19;59.04;95084.13;5031153;28;20248;-78
2021/01/20 07:40:29;;;;;;;3.30;1.40;;;;;;;6.18;58.91;95087.66;5029359;28;20802;-77
2021/01/20 07:42:55;;;;;;;2.13;1.40;;;;;;;6.15;57.96;95087.19;5030376;28;20202;-76
2021/01/20 07:45:32;;;;;;;1.73;1.40;;;;;;;6.14;57.63;95088.97;5030578;28;20198;-77
2021/01/20 07:48:00;;;;;;;3.00;1.13;;;;;;;6.12;57.93;95082.41;5030706;28;20202;-78
2021/01/20 07:50:40;;;;;;;2.20;1.20;;;;;;;6.15;57.97;95077.78;5028126;28;20222;-77
2021/01/20 07:53:09;;;;;;;1.63;1.17;;;;;;;6.17;57.97;95080.13;5030433;28;20292;-78
2021/01/20 07:55:36;;;;;;;1.80;1.40;;;;;;;6.15;57.92;95077.78;5029771;28;20210;-77
2021/01/20 07:58:02;;;;;;;1.70;1.30;;;;;;;6.16;57.93;95076.78;5029513;28;20194;-76
2021/01/20 08:00:28;;;;;;;2.60;1.40;;;;;;;6.20;58.08;95074.72;5028672;28;20268;-76
2021/01/20 08:02:56;;;;;;;1.70;1.40;;;;;;;6.23;57.90;95079.50;5030737;28;20198;-76
2021/01/20 08:05:30;;;;;;;2.60;1.73;;;;;;;6.27;57.66;95074.88;5030997;28;20190;-77
2021/01/20 08:08:04;;;;;;;7.30;1.73;;;;;;;6.32;57.29;95076.00;5031424;28;20670;-76
2021/01/20 08:10:30;;;;;;;3.13;1.70;;;;;;;6.36;57.12;95069.56;5030382;28;20276;-76
2021/01/20 08:12:59;;;;;;;2.17;1.40;;;;;;;6.44;56.89;95073.88;5031096;28;20201;-77
2021/01/20 08:15:26;;;;;;;2.90;1.70;;;;;;;6.51;56.92;95078.19;5029800;28;20276;-76
2021/01/20 08:17:55;;;;;;;3.40;1.63;;;;;;;6.53;56.78;95070.34;5029957;28;20215;-76
2021/01/20 08:20:21;;;;;;;2.30;1.53;;;;;;;6.57;56.30;95067.28;5028214;28;20237;-77
2021/01/20 08:22:49;;;;;;;4.60;1.83;;;;;;;6.61;56.78;95077.19;5030587;28;20248;-76
2021/01/20 08:25:18;;;;;;;3.73;1.43;;;;;;;6.67;56.33;95079.91;5029271;28;20194;-77
2021/01/20 08:27:45;;;;;;;3.63;2.70;;;;;;;6.77;56.14;95082.25;5028105;28;20205;-77
2021/01/20 08:30:12;;;;;;;8.53;6.07;;;;;;;6.90;56.16;95079.97;5029917;28;20214;-76
2021/01/20 08:32:52;;;;;;;1.50;1.40;;;;;;;7.07;54.56;95081.50;5030271;28;20194;-77
2021/01/20 08:35:28;;;;;;;2.53;1.30;;;;;;;7.19;54.17;95069.91;5029528;28;20216;-77
2021/01/20 08:37:55;;;;;;;1.70;1.23;;;;;;;7.26;53.89;95081.09;5029662;28;20189;-76
2021/01/20 08:40:21;;;;;;;1.17;1.07;;;;;;;7.43;54.09;95075.88;5029649;28;20228;-76
2021/01/20 08:42:47;;;;;;;1.50;1.30;;;;;;;7.60;54.15;95074.78;5029677;28;20620;-76
2021/01/20 08:45:16;;;;;;;2.00;1.60;;;;;;;7.77;53.49;95076.28;5029766;28;20678;-76
2021/01/20 08:48:00;;;;;;;1.93;1.27;;;;;;;7.96;52.89;95072.44;5028877;28;20194;-77
2021/01/20 08:50:40;;;;;;;7.93;5.90;;;;;;;8.10;51.93;95074.22;5028201;28;20376;-77
2021/01/20 08:53:09;;;;;;;16.80;10.83;;;;;;;8.20;52.37;95074.81;5030151;28;20209;-77
2021/01/20 08:55:38;;;;;;;6.67;5.10;;;;;;;8.29;52.46;95066.03;5026848;28;20210;-76
2021/01/20 08:58:25;;;;;;;2.50;2.10;;;;;;;8.31;50.81;95068.44;5023888;28;20203;-77
2021/01/20 09:00:53;;;;;;;2.50;1.80;;;;;;;8.38;51.55;95071.13;5026340;28;20229;-76
2021/01/20 09:03:21;;;;;;;3.20;1.80;;;;;;;8.43;50.55;95061.97;5028071;28;20550;-77
2021/01/20 09:05:50;;;;;;;1.67;1.43;;;;;;;8.56;50.65;95063.91;5028519;28;20609;-76
2021/01/20 09:08:17;;;;;;;2.47;1.37;;;;;;;8.71;50.90;95071.59;5026390;28;20224;-77
2021/01/20 09:10:44;;;;;;;3.20;1.80;;;;;;;8.80;51.18;95076.47;5032805;28;20222;-77
2021/01/20 09:13:11;;;;;;;3.07;1.40;;;;;;;8.95;51.71;95073.88;5033159;28;20201;-76
2021/01/20 09:15:37;;;;;;;1.97;1.47;;;;;;;9.03;50.85;95073.81;5035349;28;20709;-77
2021/01/20 09:18:06;;;;;;;2.50;1.40;;;;;;;9.07;50.97;95074.22;5031791;28;20241;-77
2021/01/20 09:20:32;;;;;;;1.40;1.30;;;;;;;9.10;50.10;95074.66;5031945;28;20250;-76
2021/01/20 09:22:58;;;;;;;1.20;1.10;;;;;;;9.19;49.93;95071.03;5032654;28;20202;-77
2021/01/20 09:25:25;;;;;;;1.63;1.40;;;;;;;9.24;49.97;95070.47;5032298;28;20275;-76
2021/01/20 09:27:51;;;;;;;2.07;1.53;;;;;;;9.29;49.88;95073.28;5032111;28;20198;-76
2021/01/20 09:30:17;;;;;;;1.43;1.20;;;;;;;9.30;49.36;95073.13;5031301;28;20218;-76
2021/01/20 09:32:46;;;;;;;1.37;1.03;;;;;;;9.37;49.49;95074.97;5032942;28;20194;-76
2021/01/20 09:35:15;;;;;;;1.43;1.13;;;;;;;9.43;49.46;95069.88;5032152;28;20240;-77
2021/01/20 09:37:42;;;;;;;1.30;1.10;;;;;;;9.48;48.99;95066.78;5032308;28;20198;-76
2021/01/20 09:40:10;;;;;;;1.53;1.27;;;;;;;9.59;48.94;95077.38;5031237;28;20644;-76
2021/01/20 09:42:39;;;;;;;1.40;1.13;;;;;;;9.66;48.53;95074.84;5021016;28;20206;-77
2021/01/20 09:45:07;;;;;;;1.20;1.10;;;;;;;9.61;47.33;95070.28;5031394;28;20882;-76
2021/01/20 09:47:33;;;;;;;0.90;0.90;;;;;;;9.73;48.26;95068.00;5032021;28;20198;-77
2021/01/20 09:50:01;;;;;;;1.03;0.90;;;;;;;9.84;47.63;95061.56;5026600;28;20214;-77
2021/01/20 09:52:28;;;;;;;1.60;1.33;;;;;;;9.89;47.12;95052.34;5026048;28;20217;-77
2021/01/20 09:54:54;;;;;;;2.00;1.20;;;;;;;9.88;46.93;95062.81;5030521;28;20264;-76
2021/01/20 09:57:20;;;;;;;2.30;1.30;;;;;;;9.92;46.59;95057.13;5031778;28;20190;-76
2021/01/20 09:59:47;;;;;;;1.13;0.90;;;;;;;9.96;47.17;95053.19;5031478;28;20218;-76
2021/01/20 10:02:13;;;;;;;1.37;1.27;;;;;;;10.00;46.59;95048.47;5031115;28;20209;-76
2021/01/20 10:04:40;;;;;;;1.33;1.23;;;;;;;10.03;45.93;95043.75;5031004;28;20225;-77
2021/01/20 10:07:06;;;;;;;2.70;1.13;;;;;;;10.05;45.71;95041.78;5031373;28;20198;-76
2021/01/20 10:09:33;;;;;;;2.37;1.30;;;;;;;10.06;45.34;95042.56;5031137;28;20259;-75
2021/01/20 10:11:59;;;;;;;1.33;1.23;;;;;;;10.08;45.61;95039.81;5031965;28;20198;-76
2021/01/20 10:14:25;;;;;;;3.53;1.50;;;;;;;10.01;45.91;95027.69;5031141;28;20594;-76
2021/01/20 10:16:52;;;;;;;2.87;1.97;;;;;;;10.01;47.16;95027.69;5031561;28;20256;-76
2021/01/20 10:19:19;;;;;;;3.03;2.10;;;;;;;10.05;47.33;95025.56;5029461;28;20249;-76
2021/01/20 10:21:45;;;;;;;3.30;2.00;;;;;;;10.04;47.81;95011.91;5030470;28;20213;-76
2021/01/20 10:24:11;;;;;;;3.47;2.23;;;;;;;10.10;47.45;95012.94;5030694;28;20217;-77
2021/01/20 10:26:38;;;;;;;2.33;2.03;;;;;;;10.23;47.03;95004.53;5029181;28;20190;-77
2021/01/20 10:29:04;;;;;;;2.30;2.00;;;;;;;10.28;46.71;95005.56;5027508;28;20194;-76
2021/01/20 10:31:32;;;;;;;2.13;1.93;;;;;;;10.33;45.64;94997.28;5031500;28;20826;-76
2021/01/20 10:33:59;;;;;;;2.03;1.80;;;;;;;10.34;46.17;94999.69;5020585;28;20670;-76
2021/01/20 10:36:25;;;;;;;2.50;2.30;;;;;;;10.38;45.98;94994.94;5024598;28;20288;-77
2021/01/20 10:38:51;;;;;;;3.23;2.40;;;;;;;10.42;46.29;94988.41;5031816;28;20619;-75
2021/01/20 10:41:18;;;;;;;3.90;2.20;;;;;;;10.43;45.76;94989.22;5032823;28;20229;-76
2021/01/20 10:43:45;;;;;;;3.43;2.40;;;;;;;10.43;46.36;94979.72;5030434;28;20198;-76
2021/01/20 10:46:11;;;;;;;3.97;2.20;;;;;;;10.38;46.25;94972.59;5030721;28;20198;-75
2021/01/20 10:48:36;;;;;;;5.90;2.53;;;;;;;10.22;46.51;94972.88;5030448;28;20190;-77
2021/01/20 10:51:04;;;;;;;5.93;2.47;;;;;;;10.16;46.45;94968.47;5024102;28;20226;-77
2021/01/20 10:53:30;;;;;;;2.37;2.17;;;;;;;10.19;47.01;94977.63;5030346;28;20406;-76
2021/01/20 10:55:55;;;;;;;2.43;2.17;;;;;;;10.16;45.79;94968.47;5031059;28;20218;-76
2021/01/20 10:58:21;;;;;;;2.87;2.20;;;;;;;10.14;45.79;94962.72;5030540;28;20213;-76
2021/01/20 11:00:49;;;;;;;3.60;2.20;;;;;;;10.11;46.49;94970.81;5030566;28;20677;-76
2021/01/20 11:03:15;;;;;;;1.97;1.70;;;;;;;9.99;45.57;94960.25;5030548;28;20198;-77
2021/01/20 11:05:41;;;;;;;2.10;1.77;;;;;;;10.08;46.19;94954.94;5030999;28;20202;-76
2021/01/20 11:08:08;;;;;;;1.80;1.70;;;;;;;10.13;45.59;94950.03;5030547;28;20263;-77
2021/01/20 11:10:33;;;;;;;3.00;1.70;;;;;;;10.08;45.76;94939.50;5029797;28;20218;-77
2021/01/20 11:13:07;;;;;;;1.80;1.70;;;;;;;10.03;45.59;94938.28;5030431;28;20195;-76
2021/01/20 11:15:35;;;;;;;2.63;1.70;;;;;;;10.02;45.67;94935.91;5022462;28;20591;-77
2021/01/20 11:18:01;;;;;;;3.27;2.03;;;;;;;10.02;45.65;94934.13;5030506;28;20748;-79
2021/01/20 11:20:27;;;;;;;23.03;17.60;;;;;;;10.03;46.31;94928.00;5027889;28;20705;-77
2021/01/20 11:22:53;;;;;;;9.40;6.97;;;;;;;10.04;46.21;94926.22;5030144;28;20209;-77
2021/01/20 11:25:20;;;;;;;3.33;2.43;;;;;;;10.10;45.85;94927.25;5030224;28;20232;-79
2021/01/20 11:27:46;;;;;;;2.97;1.97;;;;;;;10.07;45.69;94919.91;5030554;28;20194;-78
2021/01/20 11:30:12;;;;;;;2.60;1.60;;;;;;;10.15;45.59;94922.34;5030318;28;20225;-75
2021/01/20 11:32:38;;;;;;;1.70;1.60;;;;;;;10.18;45.21;94916.84;5029718;28;20209;-78
2021/01/20 11:35:05;;;;;;;2.53;1.80;;;;;;;10.17;45.58;94908.31;5030758;28;20669;-77
2021/01/20 11:37:31;;;;;;;3.07;1.60;;;;;;;10.20;45.82;94909.75;5029992;28;20197;-77
2021/01/20 11:40:00;;;;;;;2.53;1.50;;;;;;;10.33;52.65;94905.47;5028970;28;20214;-76
2021/01/20 11:42:27;;;;;;;3.53;2.10;;;;;;;10.54;49.69;94899.41;5029010;28;20207;-76
2021/01/20 11:44:53;;;;;;;10.53;8.20;;;;;;;10.70;48.79;94901.63;5029550;28;20202;-75